Aviation Digital Data Service (ADDS)

Output produced by METARs form (0929 UTC 17 November 2018)
found at http://www.aviationweather.gov/metar/data/
 
LJLJ 170900Z 30004KT 9999 FEW055 05/01 Q1028 NOSIG
TAF LJLJ 170800Z 1709/1809 30003KT 9999 FEW050 
     BECMG 1710/1712 12005KT 
     TEMPO 1710/1716 12010KT 
     BECMG 1718/1721 30003KT FEW040 SCT090 
     TEMPO 1802/1809 FEW040 BKN065
       
LJMB 170900Z 02009KT 350V060 CAVOK 05/M05 Q1031
TAF LJMB 170800Z 1709/1809 36005KT 9999 SCT040 
     TEMPO 1718/1804 BKN035 
     BECMG 1804/1806 BKN035
       
LJPZ 170900Z 05010KT 020V090 9999 FEW030 09/M02 Q1026
TAF LJPZ 170800Z 1709/1718 05007KT CAVOK 
     TEMPO 1709/1718 05012G25KT